sensor_id;sensor_type;location;lat;lon;timestamp;temperature;humidity
4701;DHT22;8724;51.272;6.554;2023-11-22T00:00:47;11.20;99.90
4701;DHT22;8724;51.272;6.554;2023-11-22T00:03:15;11.20;99.90
4701;DHT22;8724;51.272;6.554;2023-11-22T00:05:44;11.50;99.90
4701;DHT22;8724;51.272;6.554;2023-11-22T00:08:13;11.20;99.90
4701;DHT22;8724;51.272;6.554;2023-11-22T00:10:42;11.20;99.90
4701;DHT22;8724;51.272;6.554;2023-11-22T00:13:12;11.20;99.90
4701;DHT22;8724;51.272;6.554;2023-11-22T00:15:40;11.20;99.90
4701;DHT22;8724;51.272;6.554;2023-11-22T00:18:09;11.20;99.90
4701;DHT22;8724;51.272;6.554;2023-11-22T00:20:37;11.20;99.90
4701;DHT22;8724;51.272;6.554;2023-11-22T00:23:06;11.20;99.90
4701;DHT22;8724;51.272;6.554;2023-11-22T00:25:35;11.20;99.90
4701;DHT22;8724;51.272;6.554;2023-11-22T00:28:03;11.20;99.90
4701;DHT22;8724;51.272;6.554;2023-11-22T00:30:34;11.20;99.90
4701;DHT22;8724;51.272;6.554;2023-11-22T00:33:02;11.20;99.90
4701;DHT22;8724;51.272;6.554;2023-11-22T00:35:31;11.20;99.90
4701;DHT22;8724;51.272;6.554;2023-11-22T00:38:00;11.20;99.90
4701;DHT22;8724;51.272;6.554;2023-11-22T00:40:28;11.20;99.90
4701;DHT22;8724;51.272;6.554;2023-11-22T00:42:58;11.20;99.90
4701;DHT22;8724;51.272;6.554;2023-11-22T00:45:26;11.20;99.90
4701;DHT22;8724;51.272;6.554;2023-11-22T00:47:55;11.20;99.90
4701;DHT22;8724;51.272;6.554;2023-11-22T00:50:24;11.20;99.90
4701;DHT22;8724;51.272;6.554;2023-11-22T00:52:53;11.20;99.90
4701;DHT22;8724;51.272;6.554;2023-11-22T00:55:22;11.20;99.90
4701;DHT22;8724;51.272;6.554;2023-11-22T00:57:50;11.20;99.90
4701;DHT22;8724;51.272;6.554;2023-11-22T01:00:18;11.20;99.90
4701;DHT22;8724;51.272;6.554;2023-11-22T01:02:46;11.20;99.90
4701;DHT22;8724;51.272;6.554;2023-11-22T01:05:16;11.20;99.90
4701;DHT22;8724;51.272;6.554;2023-11-22T01:07:44;11.20;99.90
4701;DHT22;8724;51.272;6.554;2023-11-22T01:10:12;11.10;99.90
4701;DHT22;8724;51.272;6.554;2023-11-22T01:12:42;11.20;99.90
4701;DHT22;8724;51.272;6.554;2023-11-22T01:15:11;11.20;99.90
4701;DHT22;8724;51.272;6.554;2023-11-22T01:17:39;11.20;99.90
4701;DHT22;8724;51.272;6.554;2023-11-22T01:20:08;11.10;99.90
4701;DHT22;8724;51.272;6.554;2023-11-22T01:22:40;11.10;99.90
4701;DHT22;8724;51.272;6.554;2023-11-22T01:25:09;11.10;99.90
4701;DHT22;8724;51.272;6.554;2023-11-22T01:27:37;11.10;99.90
4701;DHT22;8724;51.272;6.554;2023-11-22T01:30:06;11.10;99.90
4701;DHT22;8724;51.272;6.554;2023-11-22T01:32:35;11.10;99.90
4701;DHT22;8724;51.272;6.554;2023-11-22T01:35:04;11.10;99.90
4701;DHT22;8724;51.272;6.554;2023-11-22T01:37:33;11.00;99.90
4701;DHT22;8724;51.272;6.554;2023-11-22T01:40:02;11.00;99.90
4701;DHT22;8724;51.272;6.554;2023-11-22T01:42:31;11.10;99.90
4701;DHT22;8724;51.272;6.554;2023-11-22T01:45:00;11.00;99.90
4701;DHT22;8724;51.272;6.554;2023-11-22T01:47:28;11.00;99.90
4701;DHT22;8724;51.272;6.554;2023-11-22T01:49:56;11.00;99.90
4701;DHT22;8724;51.272;6.554;2023-11-22T01:52:25;11.00;99.90
4701;DHT22;8724;51.272;6.554;2023-11-22T01:54:55;11.00;99.90
4701;DHT22;8724;51.272;6.554;2023-11-22T01:57:25;10.90;99.90
4701;DHT22;8724;51.272;6.554;2023-11-22T01:59:54;11.10;99.90
4701;DHT22;8724;51.272;6.554;2023-11-22T02:02:22;10.90;99.90
4701;DHT22;8724;51.272;6.554;2023-11-22T02:04:51;10.90;99.90
4701;DHT22;8724;51.272;6.554;2023-11-22T02:07:19;10.90;99.90
4701;DHT22;8724;51.272;6.554;2023-11-22T02:09:48;10.90;99.90
4701;DHT22;8724;51.272;6.554;2023-11-22T02:12:16;10.90;99.90
4701;DHT22;8724;51.272;6.554;2023-11-22T02:14:46;10.80;99.90
4701;DHT22;8724;51.272;6.554;2023-11-22T02:17:14;10.80;99.90
4701;DHT22;8724;51.272;6.554;2023-11-22T02:19:43;10.80;99.90
4701;DHT22;8724;51.272;6.554;2023-11-22T02:22:12;10.80;99.90
4701;DHT22;8724;51.272;6.554;2023-11-22T02:24:42;10.70;99.90
4701;DHT22;8724;51.272;6.554;2023-11-22T02:27:10;10.80;99.90
4701;DHT22;8724;51.272;6.554;2023-11-22T02:29:38;10.70;99.90
4701;DHT22;8724;51.272;6.554;2023-11-22T02:32:07;10.70;99.90
4701;DHT22;8724;51.272;6.554;2023-11-22T02:34:35;10.70;99.90
4701;DHT22;8724;51.272;6.554;2023-11-22T02:37:05;10.70;99.90
4701;DHT22;8724;51.272;6.554;2023-11-22T02:39:45;10.70;99.90
4701;DHT22;8724;51.272;6.554;2023-11-22T02:42:16;10.60;99.90
4701;DHT22;8724;51.272;6.554;2023-11-22T02:44:45;10.60;99.90
4701;DHT22;8724;51.272;6.554;2023-11-22T02:47:15;10.60;99.90
4701;DHT22;8724;51.272;6.554;2023-11-22T02:49:43;10.50;99.90
4701;DHT22;8724;51.272;6.554;2023-11-22T02:52:12;10.50;99.90
4701;DHT22;8724;51.272;6.554;2023-11-22T02:54:43;10.50;99.90
4701;DHT22;8724;51.272;6.554;2023-11-22T02:57:12;10.50;99.90
4701;DHT22;8724;51.272;6.554;2023-11-22T02:59:41;10.50;99.90
4701;DHT22;8724;51.272;6.554;2023-11-22T03:02:09;10.40;99.90
4701;DHT22;8724;51.272;6.554;2023-11-22T03:04:38;10.40;99.90
4701;DHT22;8724;51.272;6.554;2023-11-22T03:07:06;10.40;99.90
4701;DHT22;8724;51.272;6.554;2023-11-22T03:09:35;10.40;99.90
4701;DHT22;8724;51.272;6.554;2023-11-22T03:12:05;10.30;99.90
4701;DHT22;8724;51.272;6.554;2023-11-22T03:14:36;10.40;99.90
4701;DHT22;8724;51.272;6.554;2023-11-22T03:17:04;10.30;99.90
4701;DHT22;8724;51.272;6.554;2023-11-22T03:19:32;10.30;99.90
4701;DHT22;8724;51.272;6.554;2023-11-22T03:22:01;10.30;99.90
4701;DHT22;8724;51.272;6.554;2023-11-22T03:24:30;10.30;99.90
4701;DHT22;8724;51.272;6.554;2023-11-22T03:27:01;10.30;99.90
4701;DHT22;8724;51.272;6.554;2023-11-22T03:29:30;10.30;99.90
4701;DHT22;8724;51.272;6.554;2023-11-22T03:31:59;10.30;99.90
4701;DHT22;8724;51.272;6.554;2023-11-22T03:34:27;10.20;99.90
4701;DHT22;8724;51.272;6.554;2023-11-22T03:36:56;10.20;99.90
4701;DHT22;8724;51.272;6.554;2023-11-22T03:39:24;10.20;99.90
4701;DHT22;8724;51.272;6.554;2023-11-22T03:41:54;10.20;99.90
4701;DHT22;8724;51.272;6.554;2023-11-22T03:44:22;10.20;99.90
4701;DHT22;8724;51.272;6.554;2023-11-22T03:46:51;10.20;99.90
4701;DHT22;8724;51.272;6.554;2023-11-22T03:49:19;10.20;99.90
4701;DHT22;8724;51.272;6.554;2023-11-22T03:51:48;10.20;99.90
4701;DHT22;8724;51.272;6.554;2023-11-22T03:54:16;10.20;99.90
4701;DHT22;8724;51.272;6.554;2023-11-22T03:56:45;10.20;99.90
4701;DHT22;8724;51.272;6.554;2023-11-22T03:59:13;10.20;99.90
4701;DHT22;8724;51.272;6.554;2023-11-22T04:01:42;10.20;99.90
4701;DHT22;8724;51.272;6.554;2023-11-22T04:04:11;10.20;99.90
4701;DHT22;8724;51.272;6.554;2023-11-22T04:06:40;10.20;99.90
4701;DHT22;8724;51.272;6.554;2023-11-22T04:09:08;10.10;99.90
4701;DHT22;8724;51.272;6.554;2023-11-22T04:11:39;10.10;99.90
4701;DHT22;8724;51.272;6.554;2023-11-22T04:14:07;10.10;99.90
4701;DHT22;8724;51.272;6.554;2023-11-22T04:16:36;10.10;99.90
4701;DHT22;8724;51.272;6.554;2023-11-22T04:19:04;10.10;99.90
4701;DHT22;8724;51.272;6.554;2023-11-22T04:21:34;10.10;99.90
4701;DHT22;8724;51.272;6.554;2023-11-22T04:24:03;10.10;99.90
4701;DHT22;8724;51.272;6.554;2023-11-22T04:26:31;10.10;99.90
4701;DHT22;8724;51.272;6.554;2023-11-22T04:28:59;10.10;99.90
4701;DHT22;8724;51.272;6.554;2023-11-22T04:31:27;10.10;99.90
4701;DHT22;8724;51.272;6.554;2023-11-22T04:33:56;10.00;99.90
4701;DHT22;8724;51.272;6.554;2023-11-22T04:36:25;10.10;99.90
4701;DHT22;8724;51.272;6.554;2023-11-22T04:38:54;10.10;99.90
4701;DHT22;8724;51.272;6.554;2023-11-22T04:41:23;10.10;99.90
4701;DHT22;8724;51.272;6.554;2023-11-22T04:43:53;10.00;99.90
4701;DHT22;8724;51.272;6.554;2023-11-22T04:46:21;10.00;99.90
4701;DHT22;8724;51.272;6.554;2023-11-22T04:48:49;10.00;99.90
4701;DHT22;8724;51.272;6.554;2023-11-22T04:51:18;10.00;99.90
4701;DHT22;8724;51.272;6.554;2023-11-22T04:53:47;10.00;99.90
4701;DHT22;8724;51.272;6.554;2023-11-22T04:56:17;10.00;99.90
4701;DHT22;8724;51.272;6.554;2023-11-22T04:58:45;9.90;99.90
4701;DHT22;8724;51.272;6.554;2023-11-22T05:01:13;9.90;99.90
4701;DHT22;8724;51.272;6.554;2023-11-22T05:03:46;9.90;99.90
4701;DHT22;8724;51.272;6.554;2023-11-22T05:06:15;9.90;99.90
4701;DHT22;8724;51.272;6.554;2023-11-22T05:08:43;9.90;99.90
4701;DHT22;8724;51.272;6.554;2023-11-22T05:11:12;9.90;99.90
4701;DHT22;8724;51.272;6.554;2023-11-22T05:13:43;9.90;99.90
4701;DHT22;8724;51.272;6.554;2023-11-22T05:16:12;9.80;99.90
4701;DHT22;8724;51.272;6.554;2023-11-22T05:18:40;9.80;99.90
4701;DHT22;8724;51.272;6.554;2023-11-22T05:21:08;9.80;99.90
4701;DHT22;8724;51.272;6.554;2023-11-22T05:23:36;9.80;99.90
4701;DHT22;8724;51.272;6.554;2023-11-22T05:26:05;9.80;99.90
4701;DHT22;8724;51.272;6.554;2023-11-22T05:28:34;9.80;99.90
4701;DHT22;8724;51.272;6.554;2023-11-22T05:31:03;9.70;99.90
4701;DHT22;8724;51.272;6.554;2023-11-22T05:33:32;9.70;99.90
4701;DHT22;8724;51.272;6.554;2023-11-22T05:36:00;9.70;99.90
4701;DHT22;8724;51.272;6.554;2023-11-22T05:38:28;9.70;99.90
4701;DHT22;8724;51.272;6.554;2023-11-22T05:40:56;9.60;99.90
4701;DHT22;8724;51.272;6.554;2023-11-22T05:43:24;9.60;99.90
4701;DHT22;8724;51.272;6.554;2023-11-22T05:45:54;9.60;99.90
4701;DHT22;8724;51.272;6.554;2023-11-22T05:48:23;9.60;99.90
4701;DHT22;8724;51.272;6.554;2023-11-22T05:50:51;9.60;99.90
4701;DHT22;8724;51.272;6.554;2023-11-22T05:53:20;9.60;99.90
4701;DHT22;8724;51.272;6.554;2023-11-22T05:55:48;9.60;99.90
4701;DHT22;8724;51.272;6.554;2023-11-22T05:58:17;9.60;99.90
4701;DHT22;8724;51.272;6.554;2023-11-22T06:00:46;9.60;99.90
4701;DHT22;8724;51.272;6.554;2023-11-22T06:03:14;9.60;99.90
4701;DHT22;8724;51.272;6.554;2023-11-22T06:05:44;9.70;99.90
4701;DHT22;8724;51.272;6.554;2023-11-22T06:08:12;9.60;99.90
4701;DHT22;8724;51.272;6.554;2023-11-22T06:10:40;9.60;99.90
4701;DHT22;8724;51.272;6.554;2023-11-22T06:13:09;9.50;99.90
4701;DHT22;8724;51.272;6.554;2023-11-22T06:15:39;9.50;99.90
4701;DHT22;8724;51.272;6.554;2023-11-22T06:18:07;9.50;99.90
4701;DHT22;8724;51.272;6.554;2023-11-22T06:20:36;9.50;99.90
4701;DHT22;8724;51.272;6.554;2023-11-22T06:23:06;9.50;99.90
4701;DHT22;8724;51.272;6.554;2023-11-22T06:25:34;9.50;99.90
4701;DHT22;8724;51.272;6.554;2023-11-22T06:28:03;9.50;99.90
4701;DHT22;8724;51.272;6.554;2023-11-22T06:30:32;9.50;99.90
4701;DHT22;8724;51.272;6.554;2023-11-22T06:33:00;9.40;99.90
4701;DHT22;8724;51.272;6.554;2023-11-22T06:35:28;9.40;99.90
4701;DHT22;8724;51.272;6.554;2023-11-22T06:37:56;9.40;99.90
4701;DHT22;8724;51.272;6.554;2023-11-22T06:40:26;9.40;99.90
4701;DHT22;8724;51.272;6.554;2023-11-22T06:42:56;9.40;99.90
4701;DHT22;8724;51.272;6.554;2023-11-22T06:45:25;9.40;99.90
4701;DHT22;8724;51.272;6.554;2023-11-22T06:47:55;9.30;99.90
4701;DHT22;8724;51.272;6.554;2023-11-22T06:50:24;9.30;99.90
4701;DHT22;8724;51.272;6.554;2023-11-22T06:52:52;9.30;99.90
4701;DHT22;8724;51.272;6.554;2023-11-22T06:55:21;9.30;99.90
4701;DHT22;8724;51.272;6.554;2023-11-22T06:57:51;9.20;99.90
4701;DHT22;8724;51.272;6.554;2023-11-22T07:00:20;9.30;99.90
4701;DHT22;8724;51.272;6.554;2023-11-22T07:02:48;9.20;99.90
4701;DHT22;8724;51.272;6.554;2023-11-22T07:05:17;9.20;99.90
4701;DHT22;8724;51.272;6.554;2023-11-22T07:07:46;9.20;99.90
4701;DHT22;8724;51.272;6.554;2023-11-22T07:10:16;9.20;99.90
4701;DHT22;8724;51.272;6.554;2023-11-22T07:12:48;9.20;99.90
4701;DHT22;8724;51.272;6.554;2023-11-22T07:15:17;9.20;99.90
4701;DHT22;8724;51.272;6.554;2023-11-22T07:17:45;9.10;99.90
4701;DHT22;8724;51.272;6.554;2023-11-22T07:20:14;9.10;99.90
4701;DHT22;8724;51.272;6.554;2023-11-22T07:22:45;9.10;99.90
4701;DHT22;8724;51.272;6.554;2023-11-22T07:25:13;9.10;99.90
4701;DHT22;8724;51.272;6.554;2023-11-22T07:27:46;9.10;99.90
4701;DHT22;8724;51.272;6.554;2023-11-22T07:30:14;9.10;99.90
4701;DHT22;8724;51.272;6.554;2023-11-22T07:32:44;9.10;99.90
4701;DHT22;8724;51.272;6.554;2023-11-22T07:35:13;9.10;99.90
4701;DHT22;8724;51.272;6.554;2023-11-22T07:37:42;9.10;99.90
4701;DHT22;8724;51.272;6.554;2023-11-22T07:40:13;9.10;99.90
4701;DHT22;8724;51.272;6.554;2023-11-22T07:42:42;9.10;99.90
4701;DHT22;8724;51.272;6.554;2023-11-22T07:45:11;9.10;99.90
4701;DHT22;8724;51.272;6.554;2023-11-22T07:47:41;9.10;99.90
4701;DHT22;8724;51.272;6.554;2023-11-22T07:50:12;9.10;99.90
4701;DHT22;8724;51.272;6.554;2023-11-22T07:52:40;9.10;99.90
4701;DHT22;8724;51.272;6.554;2023-11-22T07:55:09;9.10;99.90
4701;DHT22;8724;51.272;6.554;2023-11-22T07:57:37;9.10;99.90
4701;DHT22;8724;51.272;6.554;2023-11-22T08:00:07;9.10;99.90
4701;DHT22;8724;51.272;6.554;2023-11-22T08:02:37;9.10;99.90
4701;DHT22;8724;51.272;6.554;2023-11-22T08:05:07;9.10;99.90
4701;DHT22;8724;51.272;6.554;2023-11-22T08:07:38;9.10;99.90
4701;DHT22;8724;51.272;6.554;2023-11-22T08:10:08;9.10;99.90
4701;DHT22;8724;51.272;6.554;2023-11-22T08:12:44;9.10;99.90
4701;DHT22;8724;51.272;6.554;2023-11-22T08:15:14;9.10;99.90
4701;DHT22;8724;51.272;6.554;2023-11-22T08:17:42;9.10;99.90
4701;DHT22;8724;51.272;6.554;2023-11-22T08:20:11;9.10;99.90
4701;DHT22;8724;51.272;6.554;2023-11-22T08:22:45;9.10;99.90
4701;DHT22;8724;51.272;6.554;2023-11-22T08:25:14;9.10;99.90
4701;DHT22;8724;51.272;6.554;2023-11-22T08:27:43;9.10;99.90
4701;DHT22;8724;51.272;6.554;2023-11-22T08:30:11;9.10;99.90
4701;DHT22;8724;51.272;6.554;2023-11-22T08:32:43;9.10;99.90
4701;DHT22;8724;51.272;6.554;2023-11-22T08:35:14;9.10;99.90
4701;DHT22;8724;51.272;6.554;2023-11-22T08:37:45;9.10;99.90
4701;DHT22;8724;51.272;6.554;2023-11-22T08:40:14;9.10;99.90
4701;DHT22;8724;51.272;6.554;2023-11-22T08:42:42;9.10;99.90
4701;DHT22;8724;51.272;6.554;2023-11-22T08:45:10;9.10;99.90
4701;DHT22;8724;51.272;6.554;2023-11-22T08:47:39;9.10;99.90
4701;DHT22;8724;51.272;6.554;2023-11-22T08:50:08;9.30;99.90
4701;DHT22;8724;51.272;6.554;2023-11-22T08:52:39;9.10;99.90
4701;DHT22;8724;51.272;6.554;2023-11-22T08:55:11;9.40;99.90
4701;DHT22;8724;51.272;6.554;2023-11-22T08:57:39;9.10;99.90
4701;DHT22;8724;51.272;6.554;2023-11-22T09:00:08;9.20;99.90
4701;DHT22;8724;51.272;6.554;2023-11-22T09:02:38;9.20;99.90
4701;DHT22;8724;51.272;6.554;2023-11-22T09:05:07;9.20;99.90
4701;DHT22;8724;51.272;6.554;2023-11-22T09:07:36;9.20;99.90
4701;DHT22;8724;51.272;6.554;2023-11-22T09:10:05;9.20;99.90
4701;DHT22;8724;51.272;6.554;2023-11-22T09:12:39;9.20;99.90
4701;DHT22;8724;51.272;6.554;2023-11-22T09:15:09;9.20;99.90
4701;DHT22;8724;51.272;6.554;2023-11-22T09:17:41;9.20;99.90
4701;DHT22;8724;51.272;6.554;2023-11-22T09:20:11;9.20;99.90
4701;DHT22;8724;51.272;6.554;2023-11-22T09:22:43;9.20;99.90
4701;DHT22;8724;51.272;6.554;2023-11-22T09:25:16;9.30;99.90
4701;DHT22;8724;51.272;6.554;2023-11-22T09:27:48;9.30;99.90
4701;DHT22;8724;51.272;6.554;2023-11-22T09:30:20;9.30;99.90
4701;DHT22;8724;51.272;6.554;2023-11-22T09:33:02;9.30;99.90
4701;DHT22;8724;51.272;6.554;2023-11-22T09:35:31;9.30;99.90
4701;DHT22;8724;51.272;6.554;2023-11-22T09:38:00;9.30;99.90
4701;DHT22;8724;51.272;6.554;2023-11-22T09:40:29;9.30;99.90
4701;DHT22;8724;51.272;6.554;2023-11-22T09:43:00;9.30;99.90
4701;DHT22;8724;51.272;6.554;2023-11-22T09:45:29;9.30;99.90
4701;DHT22;8724;51.272;6.554;2023-11-22T09:47:59;9.30;99.90
4701;DHT22;8724;51.272;6.554;2023-11-22T09:50:35;9.30;99.90
4701;DHT22;8724;51.272;6.554;2023-11-22T09:53:10;9.30;99.90
4701;DHT22;8724;51.272;6.554;2023-11-22T09:55:39;9.40;99.90
4701;DHT22;8724;51.272;6.554;2023-11-22T09:58:12;9.30;99.90
4701;DHT22;8724;51.272;6.554;2023-11-22T10:00:41;9.30;99.90
4701;DHT22;8724;51.272;6.554;2023-11-22T10:03:10;9.30;99.90
4701;DHT22;8724;51.272;6.554;2023-11-22T10:05:42;9.40;99.90
4701;DHT22;8724;51.272;6.554;2023-11-22T10:08:10;9.40;99.90
4701;DHT22;8724;51.272;6.554;2023-11-22T10:10:38;9.40;99.90
4701;DHT22;8724;51.272;6.554;2023-11-22T10:13:11;9.40;99.90
4701;DHT22;8724;51.272;6.554;2023-11-22T10:15:42;9.40;99.90
4701;DHT22;8724;51.272;6.554;2023-11-22T10:18:10;9.40;99.90
4701;DHT22;8724;51.272;6.554;2023-11-22T10:20:40;9.50;99.90
4701;DHT22;8724;51.272;6.554;2023-11-22T10:23:09;9.50;99.90
4701;DHT22;8724;51.272;6.554;2023-11-22T10:25:43;9.50;99.90
4701;DHT22;8724;51.272;6.554;2023-11-22T10:28:13;9.50;99.90
4701;DHT22;8724;51.272;6.554;2023-11-22T10:30:41;9.50;99.90
4701;DHT22;8724;51.272;6.554;2023-11-22T10:33:11;9.50;99.90
4701;DHT22;8724;51.272;6.554;2023-11-22T10:35:42;9.50;99.90
4701;DHT22;8724;51.272;6.554;2023-11-22T10:38:13;9.50;99.90
4701;DHT22;8724;51.272;6.554;2023-11-22T10:40:42;9.60;99.90
4701;DHT22;8724;51.272;6.554;2023-11-22T10:43:14;9.60;99.90
4701;DHT22;8724;51.272;6.554;2023-11-22T10:45:44;9.60;99.90
4701;DHT22;8724;51.272;6.554;2023-11-22T10:48:16;9.60;99.90
4701;DHT22;8724;51.272;6.554;2023-11-22T10:50:44;9.60;99.90
4701;DHT22;8724;51.272;6.554;2023-11-22T10:53:16;9.60;99.90
4701;DHT22;8724;51.272;6.554;2023-11-22T10:55:48;9.60;99.90
4701;DHT22;8724;51.272;6.554;2023-11-22T10:58:19;9.60;99.90
4701;DHT22;8724;51.272;6.554;2023-11-22T11:00:48;9.60;99.90
4701;DHT22;8724;51.272;6.554;2023-11-22T11:03:18;9.60;99.90
4701;DHT22;8724;51.272;6.554;2023-11-22T11:05:50;9.60;99.90
4701;DHT22;8724;51.272;6.554;2023-11-22T11:08:21;9.60;99.90
4701;DHT22;8724;51.272;6.554;2023-11-22T11:10:54;9.60;99.90
4701;DHT22;8724;51.272;6.554;2023-11-22T11:13:24;9.60;99.90
4701;DHT22;8724;51.272;6.554;2023-11-22T11:15:53;9.60;99.90
4701;DHT22;8724;51.272;6.554;2023-11-22T11:18:22;9.60;99.90
4701;DHT22;8724;51.272;6.554;2023-11-22T11:20:51;9.70;99.90
4701;DHT22;8724;51.272;6.554;2023-11-22T11:23:21;9.70;99.90
4701;DHT22;8724;51.272;6.554;2023-11-22T11:25:53;9.80;99.90
4701;DHT22;8724;51.272;6.554;2023-11-22T11:28:22;9.70;99.90
4701;DHT22;8724;51.272;6.554;2023-11-22T11:30:54;9.70;99.90
4701;DHT22;8724;51.272;6.554;2023-11-22T11:33:27;9.80;99.90
4701;DHT22;8724;51.272;6.554;2023-11-22T11:35:57;9.80;99.90
4701;DHT22;8724;51.272;6.554;2023-11-22T11:38:30;9.80;99.90
4701;DHT22;8724;51.272;6.554;2023-11-22T11:41:06;9.80;99.90
4701;DHT22;8724;51.272;6.554;2023-11-22T11:43:40;9.80;99.90
4701;DHT22;8724;51.272;6.554;2023-11-22T11:46:11;9.90;99.90
4701;DHT22;8724;51.272;6.554;2023-11-22T11:48:42;9.90;99.90
4701;DHT22;8724;51.272;6.554;2023-11-22T11:51:13;9.80;99.90
4701;DHT22;8724;51.272;6.554;2023-11-22T11:53:42;9.90;99.90
4701;DHT22;8724;51.272;6.554;2023-11-22T11:56:10;9.90;99.90
4701;DHT22;8724;51.272;6.554;2023-11-22T11:58:42;9.90;99.90
4701;DHT22;8724;51.272;6.554;2023-11-22T12:01:13;9.90;99.90
4701;DHT22;8724;51.272;6.554;2023-11-22T12:03:42;9.90;99.90
4701;DHT22;8724;51.272;6.554;2023-11-22T12:06:11;9.90;99.90
4701;DHT22;8724;51.272;6.554;2023-11-22T12:08:42;9.90;99.90
4701;DHT22;8724;51.272;6.554;2023-11-22T12:11:10;9.90;99.90
4701;DHT22;8724;51.272;6.554;2023-11-22T12:13:38;9.90;99.90
4701;DHT22;8724;51.272;6.554;2023-11-22T12:16:10;10.00;99.90
4701;DHT22;8724;51.272;6.554;2023-11-22T12:18:45;10.00;99.90
4701;DHT22;8724;51.272;6.554;2023-11-22T12:21:15;10.00;99.90
4701;DHT22;8724;51.272;6.554;2023-11-22T12:23:46;10.00;99.90
4701;DHT22;8724;51.272;6.554;2023-11-22T12:26:19;10.00;99.90
4701;DHT22;8724;51.272;6.554;2023-11-22T12:28:49;10.10;99.90
4701;DHT22;8724;51.272;6.554;2023-11-22T12:31:31;10.10;99.90
4701;DHT22;8724;51.272;6.554;2023-11-22T12:34:05;10.10;99.90
4701;DHT22;8724;51.272;6.554;2023-11-22T12:36:34;10.10;99.90
4701;DHT22;8724;51.272;6.554;2023-11-22T12:39:07;10.10;99.90
4701;DHT22;8724;51.272;6.554;2023-11-22T12:41:43;10.20;99.90
4701;DHT22;8724;51.272;6.554;2023-11-22T12:44:22;10.20;99.90
4701;DHT22;8724;51.272;6.554;2023-11-22T12:46:51;10.20;99.90
4701;DHT22;8724;51.272;6.554;2023-11-22T12:49:26;10.20;99.90
4701;DHT22;8724;51.272;6.554;2023-11-22T12:51:55;10.20;99.90
4701;DHT22;8724;51.272;6.554;2023-11-22T12:54:24;10.20;99.90
4701;DHT22;8724;51.272;6.554;2023-11-22T12:56:53;10.20;99.90
4701;DHT22;8724;51.272;6.554;2023-11-22T12:59:26;10.30;99.90
4701;DHT22;8724;51.272;6.554;2023-11-22T13:01:57;10.30;99.90
4701;DHT22;8724;51.272;6.554;2023-11-22T13:04:28;10.30;99.90
4701;DHT22;8724;51.272;6.554;2023-11-22T13:06:58;10.30;99.90
4701;DHT22;8724;51.272;6.554;2023-11-22T13:09:27;10.30;99.90
4701;DHT22;8724;51.272;6.554;2023-11-22T13:11:58;10.30;99.90
4701;DHT22;8724;51.272;6.554;2023-11-22T13:14:26;10.30;99.90
4701;DHT22;8724;51.272;6.554;2023-11-22T13:16:59;10.30;99.90
4701;DHT22;8724;51.272;6.554;2023-11-22T13:19:28;10.30;99.90
4701;DHT22;8724;51.272;6.554;2023-11-22T13:21:56;10.30;99.90
4701;DHT22;8724;51.272;6.554;2023-11-22T13:24:25;10.30;99.90
4701;DHT22;8724;51.272;6.554;2023-11-22T13:26:53;10.40;99.90
4701;DHT22;8724;51.272;6.554;2023-11-22T13:29:22;10.40;99.90
4701;DHT22;8724;51.272;6.554;2023-11-22T13:31:50;10.40;99.90
4701;DHT22;8724;51.272;6.554;2023-11-22T13:34:19;10.40;99.90
4701;DHT22;8724;51.272;6.554;2023-11-22T13:36:49;10.40;99.90
4701;DHT22;8724;51.272;6.554;2023-11-22T13:39:17;10.40;99.90
4701;DHT22;8724;51.272;6.554;2023-11-22T13:41:45;10.50;99.90
4701;DHT22;8724;51.272;6.554;2023-11-22T13:44:14;10.50;99.90
4701;DHT22;8724;51.272;6.554;2023-11-22T13:46:42;10.50;99.90
4701;DHT22;8724;51.272;6.554;2023-11-22T13:49:10;10.50;99.90
4701;DHT22;8724;51.272;6.554;2023-11-22T13:51:38;10.40;99.90
4701;DHT22;8724;51.272;6.554;2023-11-22T13:54:08;10.40;99.90
4701;DHT22;8724;51.272;6.554;2023-11-22T13:56:38;10.20;99.90
4701;DHT22;8724;51.272;6.554;2023-11-22T13:59:06;10.40;99.90
4701;DHT22;8724;51.272;6.554;2023-11-22T14:01:34;10.40;99.90
4701;DHT22;8724;51.272;6.554;2023-11-22T14:04:03;10.40;99.90
4701;DHT22;8724;51.272;6.554;2023-11-22T14:06:32;10.30;99.90
4701;DHT22;8724;51.272;6.554;2023-11-22T14:09:01;10.30;99.90
4701;DHT22;8724;51.272;6.554;2023-11-22T14:11:30;10.40;99.90
4701;DHT22;8724;51.272;6.554;2023-11-22T14:14:00;10.30;99.90
4701;DHT22;8724;51.272;6.554;2023-11-22T14:16:30;10.60;99.90
4701;DHT22;8724;51.272;6.554;2023-11-22T14:18:58;10.40;99.90
4701;DHT22;8724;51.272;6.554;2023-11-22T14:21:27;10.30;99.90
4701;DHT22;8724;51.272;6.554;2023-11-22T14:23:55;10.30;99.90
4701;DHT22;8724;51.272;6.554;2023-11-22T14:26:24;10.30;99.90
4701;DHT22;8724;51.272;6.554;2023-11-22T14:28:54;10.30;99.90
4701;DHT22;8724;51.272;6.554;2023-11-22T14:31:22;10.40;99.90
4701;DHT22;8724;51.272;6.554;2023-11-22T14:33:51;10.30;99.90
4701;DHT22;8724;51.272;6.554;2023-11-22T14:36:19;10.30;99.90
4701;DHT22;8724;51.272;6.554;2023-11-22T14:38:47;10.30;99.90
4701;DHT22;8724;51.272;6.554;2023-11-22T14:41:21;10.30;99.90
4701;DHT22;8724;51.272;6.554;2023-11-22T14:43:49;10.30;99.90
4701;DHT22;8724;51.272;6.554;2023-11-22T14:46:19;10.30;99.90
4701;DHT22;8724;51.272;6.554;2023-11-22T14:48:47;10.30;99.90
4701;DHT22;8724;51.272;6.554;2023-11-22T14:51:16;10.20;99.90
4701;DHT22;8724;51.272;6.554;2023-11-22T14:53:45;10.20;99.90
4701;DHT22;8724;51.272;6.554;2023-11-22T14:56:13;10.30;99.90
4701;DHT22;8724;51.272;6.554;2023-11-22T14:58:41;10.20;99.90
4701;DHT22;8724;51.272;6.554;2023-11-22T15:01:09;10.20;99.90
4701;DHT22;8724;51.272;6.554;2023-11-22T15:03:39;10.20;99.90
4701;DHT22;8724;51.272;6.554;2023-11-22T15:06:08;10.20;99.90
4701;DHT22;8724;51.272;6.554;2023-11-22T15:08:36;10.20;99.90
4701;DHT22;8724;51.272;6.554;2023-11-22T15:11:05;10.20;99.90
4701;DHT22;8724;51.272;6.554;2023-11-22T15:13:38;10.20;99.90
4701;DHT22;8724;51.272;6.554;2023-11-22T15:16:07;10.20;99.90
4701;DHT22;8724;51.272;6.554;2023-11-22T15:18:35;10.20;99.90
4701;DHT22;8724;51.272;6.554;2023-11-22T15:21:05;10.20;99.90
4701;DHT22;8724;51.272;6.554;2023-11-22T15:23:33;10.10;99.90
4701;DHT22;8724;51.272;6.554;2023-11-22T15:26:01;10.20;99.90
4701;DHT22;8724;51.272;6.554;2023-11-22T15:28:31;10.20;99.90
4701;DHT22;8724;51.272;6.554;2023-11-22T15:31:02;10.20;99.90
4701;DHT22;8724;51.272;6.554;2023-11-22T15:33:30;10.20;99.90
4701;DHT22;8724;51.272;6.554;2023-11-22T15:35:59;10.10;99.90
4701;DHT22;8724;51.272;6.554;2023-11-22T15:38:29;10.10;99.90
4701;DHT22;8724;51.272;6.554;2023-11-22T15:40:57;10.20;99.90
4701;DHT22;8724;51.272;6.554;2023-11-22T15:43:41;10.20;99.90
4701;DHT22;8724;51.272;6.554;2023-11-22T15:46:11;10.10;99.90
4701;DHT22;8724;51.272;6.554;2023-11-22T15:48:40;10.20;99.90
4701;DHT22;8724;51.272;6.554;2023-11-22T15:51:08;10.20;99.90
4701;DHT22;8724;51.272;6.554;2023-11-22T15:53:39;10.10;99.90
4701;DHT22;8724;51.272;6.554;2023-11-22T15:56:08;10.20;99.90
4701;DHT22;8724;51.272;6.554;2023-11-22T15:58:41;10.20;99.90
4701;DHT22;8724;51.272;6.554;2023-11-22T16:01:10;10.20;99.90
4701;DHT22;8724;51.272;6.554;2023-11-22T16:03:38;10.20;99.90
4701;DHT22;8724;51.272;6.554;2023-11-22T16:06:07;10.10;99.90
4701;DHT22;8724;51.272;6.554;2023-11-22T16:08:36;10.10;99.90
4701;DHT22;8724;51.272;6.554;2023-11-22T16:11:06;10.10;99.90
4701;DHT22;8724;51.272;6.554;2023-11-22T16:13:38;10.20;99.90
4701;DHT22;8724;51.272;6.554;2023-11-22T16:16:07;10.20;99.90
4701;DHT22;8724;51.272;6.554;2023-11-22T16:18:35;10.20;99.90
4701;DHT22;8724;51.272;6.554;2023-11-22T16:21:05;10.20;99.90
4701;DHT22;8724;51.272;6.554;2023-11-22T16:23:34;10.20;99.90